sensor_id;sensor_type;location;lat;lon;timestamp;P1;durP1;ratioP1;P2;durP2;ratioP2
14554;SDS011;7364;50.870;4.722;2023-04-19T00:02:12;23.53;;;19.63;;
14554;SDS011;7364;50.870;4.722;2023-04-19T00:04:40;23.27;;;19.13;;
14554;SDS011;7364;50.870;4.722;2023-04-19T00:07:09;23.20;;;20.07;;
14554;SDS011;7364;50.870;4.722;2023-04-19T00:09:36;22.40;;;19.80;;
14554;SDS011;7364;50.870;4.722;2023-04-19T00:12:03;22.50;;;20.10;;
14554;SDS011;7364;50.870;4.722;2023-04-19T00:14:30;22.97;;;19.37;;
14554;SDS011;7364;50.870;4.722;2023-04-19T00:16:59;23.83;;;19.47;;
14554;SDS011;7364;50.870;4.722;2023-04-19T00:19:26;20.30;;;18.10;;
14554;SDS011;7364;50.870;4.722;2023-04-19T00:21:54;23.27;;;19.43;;
14554;SDS011;7364;50.870;4.722;2023-04-19T00:24:21;21.73;;;19.43;;
14554;SDS011;7364;50.870;4.722;2023-04-19T00:26:48;22.90;;;19.57;;
14554;SDS011;7364;50.870;4.722;2023-04-19T00:29:15;22.87;;;20.40;;
14554;SDS011;7364;50.870;4.722;2023-04-19T00:31:43;22.50;;;18.73;;
14554;SDS011;7364;50.870;4.722;2023-04-19T00:34:11;21.33;;;18.93;;
14554;SDS011;7364;50.870;4.722;2023-04-19T00:36:39;26.43;;;21.43;;
14554;SDS011;7364;50.870;4.722;2023-04-19T00:39:06;26.37;;;19.87;;
14554;SDS011;7364;50.870;4.722;2023-04-19T00:41:33;24.27;;;20.27;;
14554;SDS011;7364;50.870;4.722;2023-04-19T00:44:01;27.57;;;20.93;;
14554;SDS011;7364;50.870;4.722;2023-04-19T00:46:28;24.47;;;21.83;;
14554;SDS011;7364;50.870;4.722;2023-04-19T00:48:55;25.43;;;20.77;;
14554;SDS011;7364;50.870;4.722;2023-04-19T00:51:24;25.17;;;20.80;;
14554;SDS011;7364;50.870;4.722;2023-04-19T00:53:52;24.57;;;20.83;;
14554;SDS011;7364;50.870;4.722;2023-04-19T00:56:19;26.53;;;21.60;;
14554;SDS011;7364;50.870;4.722;2023-04-19T00:58:48;24.63;;;21.13;;
14554;SDS011;7364;50.870;4.722;2023-04-19T01:01:15;22.07;;;19.33;;
14554;SDS011;7364;50.870;4.722;2023-04-19T01:03:44;23.07;;;19.50;;
14554;SDS011;7364;50.870;4.722;2023-04-19T01:06:11;23.43;;;19.80;;
14554;SDS011;7364;50.870;4.722;2023-04-19T01:08:41;22.43;;;19.77;;
14554;SDS011;7364;50.870;4.722;2023-04-19T01:11:08;22.53;;;19.93;;
14554;SDS011;7364;50.870;4.722;2023-04-19T01:13:36;24.80;;;21.03;;
14554;SDS011;7364;50.870;4.722;2023-04-19T01:16:04;23.37;;;20.83;;
14554;SDS011;7364;50.870;4.722;2023-04-19T01:18:32;24.83;;;19.57;;
14554;SDS011;7364;50.870;4.722;2023-04-19T01:21:01;22.30;;;19.13;;
14554;SDS011;7364;50.870;4.722;2023-04-19T01:23:30;20.93;;;18.73;;
14554;SDS011;7364;50.870;4.722;2023-04-19T01:25:58;23.80;;;19.53;;
14554;SDS011;7364;50.870;4.722;2023-04-19T01:28:26;22.33;;;19.27;;
14554;SDS011;7364;50.870;4.722;2023-04-19T01:30:53;24.77;;;19.17;;
14554;SDS011;7364;50.870;4.722;2023-04-19T01:33:21;24.37;;;20.13;;
14554;SDS011;7364;50.870;4.722;2023-04-19T01:35:48;24.00;;;20.53;;
14554;SDS011;7364;50.870;4.722;2023-04-19T01:38:16;21.60;;;18.67;;
14554;SDS011;7364;50.870;4.722;2023-04-19T01:40:44;24.60;;;20.50;;
14554;SDS011;7364;50.870;4.722;2023-04-19T01:43:12;22.87;;;19.43;;
14554;SDS011;7364;50.870;4.722;2023-04-19T01:45:41;19.40;;;17.37;;
14554;SDS011;7364;50.870;4.722;2023-04-19T01:48:09;20.17;;;18.00;;
14554;SDS011;7364;50.870;4.722;2023-04-19T01:50:36;23.33;;;19.90;;
14554;SDS011;7364;50.870;4.722;2023-04-19T01:53:04;21.23;;;18.97;;
14554;SDS011;7364;50.870;4.722;2023-04-19T01:55:31;22.93;;;19.63;;
14554;SDS011;7364;50.870;4.722;2023-04-19T01:58:00;25.07;;;19.87;;
14554;SDS011;7364;50.870;4.722;2023-04-19T02:00:27;20.93;;;18.40;;
14554;SDS011;7364;50.870;4.722;2023-04-19T02:02:55;21.23;;;18.47;;
14554;SDS011;7364;50.870;4.722;2023-04-19T02:05:22;19.93;;;17.90;;
14554;SDS011;7364;50.870;4.722;2023-04-19T02:07:50;21.43;;;17.90;;
14554;SDS011;7364;50.870;4.722;2023-04-19T02:10:17;21.73;;;18.43;;
14554;SDS011;7364;50.870;4.722;2023-04-19T02:12:44;21.23;;;17.73;;
14554;SDS011;7364;50.870;4.722;2023-04-19T02:15:13;21.37;;;18.20;;
14554;SDS011;7364;50.870;4.722;2023-04-19T02:17:40;20.43;;;17.50;;
14554;SDS011;7364;50.870;4.722;2023-04-19T02:20:08;21.70;;;18.40;;
14554;SDS011;7364;50.870;4.722;2023-04-19T02:22:35;22.60;;;18.00;;
14554;SDS011;7364;50.870;4.722;2023-04-19T02:25:02;20.73;;;18.53;;
14554;SDS011;7364;50.870;4.722;2023-04-19T02:27:30;26.53;;;18.33;;
14554;SDS011;7364;50.870;4.722;2023-04-19T02:29:58;20.47;;;17.77;;
14554;SDS011;7364;50.870;4.722;2023-04-19T02:32:26;21.03;;;17.17;;
14554;SDS011;7364;50.870;4.722;2023-04-19T02:34:53;18.30;;;16.40;;
14554;SDS011;7364;50.870;4.722;2023-04-19T02:37:21;23.13;;;18.07;;
14554;SDS011;7364;50.870;4.722;2023-04-19T02:39:48;19.73;;;16.63;;
14554;SDS011;7364;50.870;4.722;2023-04-19T02:42:15;19.87;;;17.30;;
14554;SDS011;7364;50.870;4.722;2023-04-19T02:44:42;19.67;;;17.27;;
14554;SDS011;7364;50.870;4.722;2023-04-19T02:47:10;19.87;;;17.80;;
14554;SDS011;7364;50.870;4.722;2023-04-19T02:49:38;19.33;;;17.33;;
14554;SDS011;7364;50.870;4.722;2023-04-19T02:52:06;19.40;;;17.30;;
14554;SDS011;7364;50.870;4.722;2023-04-19T02:54:34;19.77;;;17.67;;
14554;SDS011;7364;50.870;4.722;2023-04-19T02:57:01;18.80;;;15.47;;
14554;SDS011;7364;50.870;4.722;2023-04-19T02:59:28;19.50;;;16.83;;
14554;SDS011;7364;50.870;4.722;2023-04-19T03:01:55;22.10;;;17.63;;
14554;SDS011;7364;50.870;4.722;2023-04-19T03:04:23;19.17;;;17.07;;
14554;SDS011;7364;50.870;4.722;2023-04-19T03:06:52;20.33;;;17.63;;
14554;SDS011;7364;50.870;4.722;2023-04-19T03:09:19;20.97;;;15.93;;
14554;SDS011;7364;50.870;4.722;2023-04-19T03:11:47;19.97;;;15.57;;
14554;SDS011;7364;50.870;4.722;2023-04-19T03:14:14;21.33;;;16.87;;
14554;SDS011;7364;50.870;4.722;2023-04-19T03:16:41;19.80;;;16.87;;
14554;SDS011;7364;50.870;4.722;2023-04-19T03:19:09;19.67;;;16.17;;
14554;SDS011;7364;50.870;4.722;2023-04-19T03:21:36;21.07;;;17.73;;
14554;SDS011;7364;50.870;4.722;2023-04-19T03:24:05;20.90;;;15.93;;
14554;SDS011;7364;50.870;4.722;2023-04-19T03:26:32;21.33;;;17.07;;
14554;SDS011;7364;50.870;4.722;2023-04-19T03:28:59;18.00;;;16.07;;
14554;SDS011;7364;50.870;4.722;2023-04-19T03:31:34;18.67;;;16.47;;
14554;SDS011;7364;50.870;4.722;2023-04-19T03:34:02;17.97;;;16.03;;
14554;SDS011;7364;50.870;4.722;2023-04-19T03:36:33;18.37;;;15.80;;
14554;SDS011;7364;50.870;4.722;2023-04-19T03:39:03;21.60;;;16.50;;
14554;SDS011;7364;50.870;4.722;2023-04-19T03:41:32;19.43;;;16.10;;
14554;SDS011;7364;50.870;4.722;2023-04-19T03:43:59;16.33;;;14.73;;
14554;SDS011;7364;50.870;4.722;2023-04-19T03:46:27;18.97;;;15.73;;
14554;SDS011;7364;50.870;4.722;2023-04-19T03:48:55;18.43;;;16.03;;
14554;SDS011;7364;50.870;4.722;2023-04-19T03:51:22;19.67;;;17.07;;
14554;SDS011;7364;50.870;4.722;2023-04-19T03:53:51;18.77;;;16.70;;
14554;SDS011;7364;50.870;4.722;2023-04-19T03:56:20;21.60;;;16.97;;
14554;SDS011;7364;50.870;4.722;2023-04-19T03:58:49;17.93;;;15.17;;
14554;SDS011;7364;50.870;4.722;2023-04-19T04:01:17;22.07;;;17.03;;
14554;SDS011;7364;50.870;4.722;2023-04-19T04:03:44;20.67;;;17.13;;
14554;SDS011;7364;50.870;4.722;2023-04-19T04:06:11;26.50;;;16.83;;
14554;SDS011;7364;50.870;4.722;2023-04-19T04:08:39;21.40;;;17.10;;
14554;SDS011;7364;50.870;4.722;2023-04-19T04:11:06;24.40;;;18.23;;
14554;SDS011;7364;50.870;4.722;2023-04-19T04:13:36;19.83;;;17.27;;
14554;SDS011;7364;50.870;4.722;2023-04-19T04:16:03;21.60;;;17.80;;
14554;SDS011;7364;50.870;4.722;2023-04-19T04:18:30;25.07;;;19.23;;
14554;SDS011;7364;50.870;4.722;2023-04-19T04:20:58;22.10;;;17.10;;
14554;SDS011;7364;50.870;4.722;2023-04-19T04:23:25;22.10;;;16.77;;
14554;SDS011;7364;50.870;4.722;2023-04-19T04:25:55;20.83;;;18.53;;
14554;SDS011;7364;50.870;4.722;2023-04-19T04:28:24;25.13;;;18.20;;
14554;SDS011;7364;50.870;4.722;2023-04-19T04:30:54;21.40;;;18.53;;
14554;SDS011;7364;50.870;4.722;2023-04-19T04:33:23;22.77;;;17.63;;
14554;SDS011;7364;50.870;4.722;2023-04-19T04:35:50;22.33;;;18.00;;
14554;SDS011;7364;50.870;4.722;2023-04-19T04:38:18;25.87;;;18.10;;
14554;SDS011;7364;50.870;4.722;2023-04-19T04:40:48;20.27;;;17.67;;
14554;SDS011;7364;50.870;4.722;2023-04-19T04:43:17;20.57;;;18.00;;
14554;SDS011;7364;50.870;4.722;2023-04-19T04:45:47;26.27;;;19.80;;
14554;SDS011;7364;50.870;4.722;2023-04-19T04:48:15;24.47;;;18.73;;
14554;SDS011;7364;50.870;4.722;2023-04-19T04:50:43;24.83;;;18.50;;
14554;SDS011;7364;50.870;4.722;2023-04-19T04:53:10;22.03;;;18.60;;
14554;SDS011;7364;50.870;4.722;2023-04-19T04:55:37;29.03;;;19.67;;
14554;SDS011;7364;50.870;4.722;2023-04-19T04:58:05;24.67;;;18.50;;
14554;SDS011;7364;50.870;4.722;2023-04-19T05:00:32;23.70;;;17.87;;
14554;SDS011;7364;50.870;4.722;2023-04-19T05:03:00;25.70;;;19.87;;
14554;SDS011;7364;50.870;4.722;2023-04-19T05:05:28;25.77;;;20.83;;
14554;SDS011;7364;50.870;4.722;2023-04-19T05:07:56;27.07;;;20.80;;
14554;SDS011;7364;50.870;4.722;2023-04-19T05:10:23;26.30;;;20.30;;
14554;SDS011;7364;50.870;4.722;2023-04-19T05:12:50;26.37;;;20.90;;
14554;SDS011;7364;50.870;4.722;2023-04-19T05:15:17;22.20;;;18.73;;
14554;SDS011;7364;50.870;4.722;2023-04-19T05:17:45;23.20;;;19.83;;
14554;SDS011;7364;50.870;4.722;2023-04-19T05:20:12;23.93;;;20.67;;
14554;SDS011;7364;50.870;4.722;2023-04-19T05:22:41;24.53;;;20.67;;
14554;SDS011;7364;50.870;4.722;2023-04-19T05:25:08;25.63;;;21.23;;
14554;SDS011;7364;50.870;4.722;2023-04-19T05:27:36;24.90;;;20.60;;
14554;SDS011;7364;50.870;4.722;2023-04-19T05:30:04;25.40;;;21.40;;
14554;SDS011;7364;50.870;4.722;2023-04-19T05:32:33;25.43;;;20.80;;
14554;SDS011;7364;50.870;4.722;2023-04-19T05:35:00;29.30;;;20.00;;
14554;SDS011;7364;50.870;4.722;2023-04-19T05:37:27;27.30;;;20.10;;
14554;SDS011;7364;50.870;4.722;2023-04-19T05:39:56;24.30;;;20.10;;
14554;SDS011;7364;50.870;4.722;2023-04-19T05:42:24;33.70;;;20.60;;
14554;SDS011;7364;50.870;4.722;2023-04-19T05:44:51;27.43;;;20.50;;
14554;SDS011;7364;50.870;4.722;2023-04-19T05:47:18;23.20;;;19.77;;
14554;SDS011;7364;50.870;4.722;2023-04-19T05:49:45;22.63;;;19.97;;
14554;SDS011;7364;50.870;4.722;2023-04-19T05:52:12;25.63;;;20.37;;
14554;SDS011;7364;50.870;4.722;2023-04-19T05:54:40;27.40;;;21.23;;
14554;SDS011;7364;50.870;4.722;2023-04-19T05:57:09;27.53;;;19.47;;
14554;SDS011;7364;50.870;4.722;2023-04-19T05:59:37;24.40;;;19.93;;
14554;SDS011;7364;50.870;4.722;2023-04-19T06:02:04;27.90;;;19.90;;
14554;SDS011;7364;50.870;4.722;2023-04-19T06:04:32;24.10;;;20.43;;
14554;SDS011;7364;50.870;4.722;2023-04-19T06:07:00;25.00;;;20.00;;
14554;SDS011;7364;50.870;4.722;2023-04-19T06:09:27;22.20;;;19.80;;
14554;SDS011;7364;50.870;4.722;2023-04-19T06:11:55;22.17;;;19.73;;
14554;SDS011;7364;50.870;4.722;2023-04-19T06:14:25;23.20;;;17.73;;
14554;SDS011;7364;50.870;4.722;2023-04-19T06:16:53;22.47;;;19.10;;
14554;SDS011;7364;50.870;4.722;2023-04-19T06:19:21;25.00;;;19.47;;
14554;SDS011;7364;50.870;4.722;2023-04-19T06:21:48;23.60;;;18.50;;
14554;SDS011;7364;50.870;4.722;2023-04-19T06:24:15;28.30;;;19.07;;
14554;SDS011;7364;50.870;4.722;2023-04-19T06:26:42;23.63;;;18.33;;
14554;SDS011;7364;50.870;4.722;2023-04-19T06:29:11;21.50;;;16.80;;
14554;SDS011;7364;50.870;4.722;2023-04-19T06:31:40;28.17;;;18.00;;
14554;SDS011;7364;50.870;4.722;2023-04-19T06:34:07;23.10;;;17.03;;
14554;SDS011;7364;50.870;4.722;2023-04-19T06:36:37;24.87;;;19.23;;
14554;SDS011;7364;50.870;4.722;2023-04-19T06:39:05;23.93;;;18.33;;
14554;SDS011;7364;50.870;4.722;2023-04-19T06:41:32;24.60;;;16.90;;
14554;SDS011;7364;50.870;4.722;2023-04-19T06:43:59;22.23;;;17.30;;
14554;SDS011;7364;50.870;4.722;2023-04-19T06:46:27;19.27;;;17.13;;
14554;SDS011;7364;50.870;4.722;2023-04-19T06:48:56;20.30;;;16.73;;
14554;SDS011;7364;50.870;4.722;2023-04-19T06:51:23;27.90;;;17.83;;
14554;SDS011;7364;50.870;4.722;2023-04-19T06:53:50;21.23;;;18.03;;
14554;SDS011;7364;50.870;4.722;2023-04-19T06:56:17;27.50;;;18.63;;
14554;SDS011;7364;50.870;4.722;2023-04-19T06:59:05;23.93;;;19.80;;
14554;SDS011;7364;50.870;4.722;2023-04-19T07:01:32;21.73;;;17.17;;
14554;SDS011;7364;50.870;4.722;2023-04-19T07:04:00;23.93;;;16.67;;
14554;SDS011;7364;50.870;4.722;2023-04-19T07:06:28;22.67;;;17.03;;
14554;SDS011;7364;50.870;4.722;2023-04-19T07:08:55;20.27;;;16.63;;
14554;SDS011;7364;50.870;4.722;2023-04-19T07:11:22;18.27;;;16.30;;
14554;SDS011;7364;50.870;4.722;2023-04-19T07:13:49;18.87;;;15.97;;
14554;SDS011;7364;50.870;4.722;2023-04-19T07:16:17;19.37;;;15.47;;
14554;SDS011;7364;50.870;4.722;2023-04-19T07:18:44;19.50;;;15.90;;
14554;SDS011;7364;50.870;4.722;2023-04-19T07:21:13;18.77;;;15.33;;
14554;SDS011;7364;50.870;4.722;2023-04-19T07:23:40;20.27;;;16.27;;
14554;SDS011;7364;50.870;4.722;2023-04-19T07:26:07;18.53;;;15.07;;
14554;SDS011;7364;50.870;4.722;2023-04-19T07:28:34;18.63;;;15.30;;
14554;SDS011;7364;50.870;4.722;2023-04-19T07:31:02;20.50;;;15.63;;
14554;SDS011;7364;50.870;4.722;2023-04-19T07:33:29;18.53;;;14.47;;
14554;SDS011;7364;50.870;4.722;2023-04-19T07:35:56;28.40;;;16.73;;
14554;SDS011;7364;50.870;4.722;2023-04-19T07:38:25;20.63;;;15.03;;
14554;SDS011;7364;50.870;4.722;2023-04-19T07:40:52;18.37;;;14.97;;
14554;SDS011;7364;50.870;4.722;2023-04-19T07:43:19;19.97;;;15.37;;
14554;SDS011;7364;50.870;4.722;2023-04-19T07:45:46;16.60;;;14.73;;
14554;SDS011;7364;50.870;4.722;2023-04-19T07:48:14;15.53;;;12.73;;
14554;SDS011;7364;50.870;4.722;2023-04-19T07:50:41;14.47;;;12.97;;
14554;SDS011;7364;50.870;4.722;2023-04-19T07:53:08;15.93;;;13.50;;
14554;SDS011;7364;50.870;4.722;2023-04-19T07:55:37;19.53;;;15.43;;
14554;SDS011;7364;50.870;4.722;2023-04-19T07:58:04;18.20;;;14.13;;
14554;SDS011;7364;50.870;4.722;2023-04-19T08:00:31;14.77;;;12.40;;
14554;SDS011;7364;50.870;4.722;2023-04-19T08:03:01;20.43;;;13.33;;
14554;SDS011;7364;50.870;4.722;2023-04-19T08:05:29;15.33;;;12.83;;
14554;SDS011;7364;50.870;4.722;2023-04-19T08:07:56;15.00;;;12.13;;
14554;SDS011;7364;50.870;4.722;2023-04-19T08:10:23;14.27;;;12.50;;
14554;SDS011;7364;50.870;4.722;2023-04-19T08:12:54;18.70;;;13.53;;
14554;SDS011;7364;50.870;4.722;2023-04-19T08:15:21;15.40;;;12.77;;
14554;SDS011;7364;50.870;4.722;2023-04-19T08:17:48;17.80;;;13.40;;
14554;SDS011;7364;50.870;4.722;2023-04-19T08:20:15;23.13;;;13.17;;
14554;SDS011;7364;50.870;4.722;2023-04-19T08:22:43;25.03;;;13.90;;
14554;SDS011;7364;50.870;4.722;2023-04-19T08:25:11;26.30;;;14.63;;
14554;SDS011;7364;50.870;4.722;2023-04-19T08:27:38;20.27;;;14.10;;
14554;SDS011;7364;50.870;4.722;2023-04-19T08:30:07;19.90;;;14.20;;
14554;SDS011;7364;50.870;4.722;2023-04-19T08:32:35;16.57;;;13.50;;
14554;SDS011;7364;50.870;4.722;2023-04-19T08:35:03;16.50;;;13.17;;
14554;SDS011;7364;50.870;4.722;2023-04-19T08:37:32;20.17;;;13.47;;
14554;SDS011;7364;50.870;4.722;2023-04-19T08:39:59;16.00;;;13.07;;
14554;SDS011;7364;50.870;4.722;2023-04-19T08:42:28;14.33;;;12.73;;
14554;SDS011;7364;50.870;4.722;2023-04-19T08:44:56;20.40;;;12.73;;
14554;SDS011;7364;50.870;4.722;2023-04-19T08:47:32;14.17;;;11.27;;
14554;SDS011;7364;50.870;4.722;2023-04-19T08:50:00;12.87;;;11.57;;
14554;SDS011;7364;50.870;4.722;2023-04-19T08:52:29;12.97;;;11.67;;
14554;SDS011;7364;50.870;4.722;2023-04-19T08:55:00;12.87;;;11.50;;
14554;SDS011;7364;50.870;4.722;2023-04-19T08:57:29;15.80;;;10.80;;
14554;SDS011;7364;50.870;4.722;2023-04-19T08:59:57;17.60;;;12.43;;
14554;SDS011;7364;50.870;4.722;2023-04-19T09:02:24;18.77;;;12.07;;
14554;SDS011;7364;50.870;4.722;2023-04-19T09:04:53;17.70;;;12.93;;
14554;SDS011;7364;50.870;4.722;2023-04-19T09:07:24;13.77;;;12.23;;
14554;SDS011;7364;50.870;4.722;2023-04-19T09:12:38;14.47;;;12.00;;
14554;SDS011;7364;50.870;4.722;2023-04-19T09:15:07;14.83;;;11.63;;
14554;SDS011;7364;50.870;4.722;2023-04-19T09:17:35;12.90;;;11.47;;
14554;SDS011;7364;50.870;4.722;2023-04-19T09:20:05;12.30;;;11.10;;
14554;SDS011;7364;50.870;4.722;2023-04-19T09:22:32;13.53;;;11.30;;
14554;SDS011;7364;50.870;4.722;2023-04-19T09:25:00;13.70;;;11.97;;
14554;SDS011;7364;50.870;4.722;2023-04-19T09:27:27;12.77;;;11.27;;
14554;SDS011;7364;50.870;4.722;2023-04-19T09:29:57;14.17;;;11.83;;
14554;SDS011;7364;50.870;4.722;2023-04-19T09:32:26;13.73;;;11.63;;
14554;SDS011;7364;50.870;4.722;2023-04-19T09:34:54;13.07;;;10.73;;
14554;SDS011;7364;50.870;4.722;2023-04-19T09:37:24;13.80;;;10.23;;
14554;SDS011;7364;50.870;4.722;2023-04-19T09:39:52;11.53;;;9.83;;
14554;SDS011;7364;50.870;4.722;2023-04-19T09:42:19;13.40;;;9.97;;
14554;SDS011;7364;50.870;4.722;2023-04-19T09:44:54;13.77;;;9.63;;
14554;SDS011;7364;50.870;4.722;2023-04-19T09:47:22;13.23;;;9.27;;
14554;SDS011;7364;50.870;4.722;2023-04-19T09:50:06;16.10;;;9.17;;
14554;SDS011;7364;50.870;4.722;2023-04-19T09:52:36;9.73;;;7.90;;
14554;SDS011;7364;50.870;4.722;2023-04-19T09:55:04;10.77;;;8.13;;
14554;SDS011;7364;50.870;4.722;2023-04-19T09:57:33;9.83;;;7.20;;
14554;SDS011;7364;50.870;4.722;2023-04-19T10:00:00;11.67;;;7.97;;
14554;SDS011;7364;50.870;4.722;2023-04-19T10:02:31;9.93;;;8.23;;
14554;SDS011;7364;50.870;4.722;2023-04-19T10:04:58;7.87;;;6.93;;
14554;SDS011;7364;50.870;4.722;2023-04-19T10:07:26;9.17;;;7.07;;
14554;SDS011;7364;50.870;4.722;2023-04-19T10:09:55;10.13;;;7.00;;
14554;SDS011;7364;50.870;4.722;2023-04-19T10:12:24;9.93;;;7.13;;
14554;SDS011;7364;50.870;4.722;2023-04-19T10:14:53;9.17;;;7.70;;
14554;SDS011;7364;50.870;4.722;2023-04-19T10:17:22;9.70;;;7.73;;
14554;SDS011;7364;50.870;4.722;2023-04-19T10:19:51;7.90;;;7.10;;
14554;SDS011;7364;50.870;4.722;2023-04-19T10:22:24;10.93;;;8.33;;
14554;SDS011;7364;50.870;4.722;2023-04-19T10:25:09;8.67;;;7.40;;
14554;SDS011;7364;50.870;4.722;2023-04-19T10:27:38;10.97;;;7.53;;
14554;SDS011;7364;50.870;4.722;2023-04-19T10:30:06;8.53;;;6.97;;
14554;SDS011;7364;50.870;4.722;2023-04-19T10:32:43;8.80;;;7.23;;
14554;SDS011;7364;50.870;4.722;2023-04-19T10:35:16;7.90;;;6.70;;
14554;SDS011;7364;50.870;4.722;2023-04-19T10:38:01;8.30;;;7.10;;
14554;SDS011;7364;50.870;4.722;2023-04-19T10:40:56;8.57;;;6.50;;
14554;SDS011;7364;50.870;4.722;2023-04-19T10:43:26;7.57;;;6.80;;
14554;SDS011;7364;50.870;4.722;2023-04-19T10:45:57;8.03;;;7.23;;
14554;SDS011;7364;50.870;4.722;2023-04-19T10:48:36;8.13;;;7.10;;
14554;SDS011;7364;50.870;4.722;2023-04-19T10:51:10;8.73;;;7.27;;
14554;SDS011;7364;50.870;4.722;2023-04-19T10:53:44;8.40;;;7.60;;
14554;SDS011;7364;50.870;4.722;2023-04-19T10:56:14;8.37;;;7.30;;
14554;SDS011;7364;50.870;4.722;2023-04-19T11:01:48;8.70;;;7.90;;
14554;SDS011;7364;50.870;4.722;2023-04-19T11:04:17;8.57;;;7.10;;
14554;SDS011;7364;50.870;4.722;2023-04-19T11:06:58;10.83;;;7.93;;
14554;SDS011;7364;50.870;4.722;2023-04-19T11:09:31;18.90;;;9.27;;
14554;SDS011;7364;50.870;4.722;2023-04-19T11:12:01;9.03;;;7.63;;
14554;SDS011;7364;50.870;4.722;2023-04-19T11:14:33;8.90;;;6.80;;
14554;SDS011;7364;50.870;4.722;2023-04-19T11:17:01;8.60;;;7.57;;
14554;SDS011;7364;50.870;4.722;2023-04-19T11:19:39;10.53;;;7.37;;
14554;SDS011;7364;50.870;4.722;2023-04-19T11:22:08;10.33;;;8.53;;
14554;SDS011;7364;50.870;4.722;2023-04-19T11:24:36;10.50;;;9.20;;
14554;SDS011;7364;50.870;4.722;2023-04-19T11:27:12;13.43;;;8.23;;
14554;SDS011;7364;50.870;4.722;2023-04-19T11:29:39;10.33;;;7.87;;
14554;SDS011;7364;50.870;4.722;2023-04-19T11:32:06;9.73;;;8.73;;
14554;SDS011;7364;50.870;4.722;2023-04-19T11:34:34;11.93;;;8.57;;
14554;SDS011;7364;50.870;4.722;2023-04-19T11:37:02;12.37;;;7.97;;
14554;SDS011;7364;50.870;4.722;2023-04-19T11:39:29;10.10;;;8.37;;
14554;SDS011;7364;50.870;4.722;2023-04-19T11:41:56;13.33;;;8.67;;
14554;SDS011;7364;50.870;4.722;2023-04-19T11:44:25;10.50;;;8.57;;
14554;SDS011;7364;50.870;4.722;2023-04-19T11:46:59;9.33;;;7.47;;
14554;SDS011;7364;50.870;4.722;2023-04-19T11:49:27;7.87;;;7.17;;
14554;SDS011;7364;50.870;4.722;2023-04-19T11:51:55;10.30;;;7.83;;
14554;SDS011;7364;50.870;4.722;2023-04-19T11:54:24;8.90;;;7.70;;
14554;SDS011;7364;50.870;4.722;2023-04-19T11:56:59;9.87;;;7.33;;
14554;SDS011;7364;50.870;4.722;2023-04-19T11:59:29;11.27;;;7.90;;
14554;SDS011;7364;50.870;4.722;2023-04-19T12:02:03;8.73;;;7.37;;
14554;SDS011;7364;50.870;4.722;2023-04-19T12:04:33;8.47;;;7.10;;
14554;SDS011;7364;50.870;4.722;2023-04-19T12:07:00;9.77;;;6.87;;
14554;SDS011;7364;50.870;4.722;2023-04-19T12:09:29;8.10;;;6.70;;
14554;SDS011;7364;50.870;4.722;2023-04-19T12:12:01;8.17;;;6.27;;
14554;SDS011;7364;50.870;4.722;2023-04-19T12:14:30;7.97;;;6.63;;
14554;SDS011;7364;50.870;4.722;2023-04-19T12:17:05;8.87;;;6.77;;
14554;SDS011;7364;50.870;4.722;2023-04-19T12:19:34;6.73;;;5.73;;
14554;SDS011;7364;50.870;4.722;2023-04-19T12:22:09;8.60;;;5.83;;
14554;SDS011;7364;50.870;4.722;2023-04-19T12:24:37;6.47;;;5.43;;
14554;SDS011;7364;50.870;4.722;2023-04-19T12:27:05;5.80;;;5.20;;
14554;SDS011;7364;50.870;4.722;2023-04-19T12:29:33;8.73;;;6.57;;
14554;SDS011;7364;50.870;4.722;2023-04-19T12:32:01;8.47;;;5.87;;
14554;SDS011;7364;50.870;4.722;2023-04-19T12:34:29;6.50;;;5.50;;
14554;SDS011;7364;50.870;4.722;2023-04-19T12:36:56;9.53;;;5.07;;
14554;SDS011;7364;50.870;4.722;2023-04-19T12:39:26;6.17;;;5.13;;
14554;SDS011;7364;50.870;4.722;2023-04-19T12:41:53;7.27;;;5.27;;
14554;SDS011;7364;50.870;4.722;2023-04-19T12:44:21;5.80;;;5.20;;
14554;SDS011;7364;50.870;4.722;2023-04-19T12:46:50;6.77;;;5.67;;
14554;SDS011;7364;50.870;4.722;2023-04-19T12:49:21;5.50;;;4.37;;
14554;SDS011;7364;50.870;4.722;2023-04-19T12:51:48;6.57;;;4.50;;
14554;SDS011;7364;50.870;4.722;2023-04-19T12:54:15;5.03;;;4.53;;
14554;SDS011;7364;50.870;4.722;2023-04-19T12:56:43;18.23;;;5.78;;
14554;SDS011;7364;50.870;4.722;2023-04-19T12:59:11;12.97;;;4.33;;
14554;SDS011;7364;50.870;4.722;2023-04-19T13:01:38;5.78;;;3.75;;
14554;SDS011;7364;50.870;4.722;2023-04-19T13:04:07;5.32;;;3.50;;
14554;SDS011;7364;50.870;4.722;2023-04-19T13:06:36;7.72;;;3.75;;
14554;SDS011;7364;50.870;4.722;2023-04-19T13:09:05;6.07;;;4.63;;
14554;SDS011;7364;50.870;4.722;2023-04-19T13:11:33;6.70;;;4.32;;
14554;SDS011;7364;50.870;4.722;2023-04-19T13:14:00;8.48;;;5.70;;
14554;SDS011;7364;50.870;4.722;2023-04-19T13:16:30;6.80;;;5.43;;
14554;SDS011;7364;50.870;4.722;2023-04-19T13:18:57;7.72;;;5.40;;
14554;SDS011;7364;50.870;4.722;2023-04-19T13:21:26;6.40;;;5.43;;
14554;SDS011;7364;50.870;4.722;2023-04-19T13:23:53;7.68;;;5.07;;
14554;SDS011;7364;50.870;4.722;2023-04-19T13:26:20;6.20;;;4.07;;
14554;SDS011;7364;50.870;4.722;2023-04-19T13:28:48;5.75;;;3.70;;
14554;SDS011;7364;50.870;4.722;2023-04-19T13:31:15;5.32;;;4.10;;
14554;SDS011;7364;50.870;4.722;2023-04-19T13:33:42;5.22;;;4.13;;
14554;SDS011;7364;50.870;4.722;2023-04-19T13:36:10;9.95;;;3.88;;
14554;SDS011;7364;50.870;4.722;2023-04-19T13:38:39;5.30;;;3.42;;
14554;SDS011;7364;50.870;4.722;2023-04-19T13:41:06;3.80;;;2.97;;
14554;SDS011;7364;50.870;4.722;2023-04-19T13:43:33;4.95;;;2.72;;
14554;SDS011;7364;50.870;4.722;2023-04-19T13:46:00;4.05;;;2.80;;
14554;SDS011;7364;50.870;4.722;2023-04-19T13:48:27;4.25;;;2.60;;
14554;SDS011;7364;50.870;4.722;2023-04-19T13:50:58;6.70;;;2.67;;
14554;SDS011;7364;50.870;4.722;2023-04-19T13:53:25;3.53;;;2.83;;
14554;SDS011;7364;50.870;4.722;2023-04-19T13:55:55;3.28;;;2.25;;
14554;SDS011;7364;50.870;4.722;2023-04-19T13:58:22;4.45;;;2.67;;
14554;SDS011;7364;50.870;4.722;2023-04-19T14:00:50;4.00;;;2.45;;
14554;SDS011;7364;50.870;4.722;2023-04-19T14:03:18;4.90;;;2.42;;
14554;SDS011;7364;50.870;4.722;2023-04-19T14:05:45;4.68;;;2.65;;
14554;SDS011;7364;50.870;4.722;2023-04-19T14:08:12;5.93;;;3.20;;
14554;SDS011;7364;50.870;4.722;2023-04-19T14:10:39;5.47;;;2.60;;
14554;SDS011;7364;50.870;4.722;2023-04-19T14:13:08;4.47;;;2.60;;
14554;SDS011;7364;50.870;4.722;2023-04-19T14:15:35;3.55;;;2.85;;
14554;SDS011;7364;50.870;4.722;2023-04-19T14:18:03;4.05;;;2.85;;
14554;SDS011;7364;50.870;4.722;2023-04-19T14:20:30;3.80;;;2.45;;
14554;SDS011;7364;50.870;4.722;2023-04-19T14:22:58;4.30;;;2.42;;
14554;SDS011;7364;50.870;4.722;2023-04-19T14:25:25;3.92;;;2.05;;
14554;SDS011;7364;50.870;4.722;2023-04-19T14:27:53;5.53;;;2.33;;
14554;SDS011;7364;50.870;4.722;2023-04-19T14:30:21;3.55;;;2.00;;
14554;SDS011;7364;50.870;4.722;2023-04-19T14:32:50;3.53;;;2.30;;
14554;SDS011;7364;50.870;4.722;2023-04-19T14:35:17;3.03;;;2.42;;
14554;SDS011;7364;50.870;4.722;2023-04-19T14:37:45;3.97;;;2.40;;
14554;SDS011;7364;50.870;4.722;2023-04-19T14:40:12;3.50;;;2.30;;
14554;SDS011;7364;50.870;4.722;2023-04-19T14:42:40;4.57;;;2.25;;
14554;SDS011;7364;50.870;4.722;2023-04-19T14:45:07;4.30;;;2.72;;
14554;SDS011;7364;50.870;4.722;2023-04-19T14:47:37;5.25;;;2.42;;
14554;SDS011;7364;50.870;4.722;2023-04-19T14:50:04;4.53;;;2.97;;
14554;SDS011;7364;50.870;4.722;2023-04-19T14:52:32;3.42;;;2.53;;
14554;SDS011;7364;50.870;4.722;2023-04-19T14:55:00;3.70;;;2.78;;
14554;SDS011;7364;50.870;4.722;2023-04-19T14:57:27;2.47;;;2.25;;